Mason City Municipal Airport
KMCW : rendu visible

Aérodrome :











RETROUVEZ-NOUS SUR...

 
LOGIN :

S'inscrire | Disclaimer

   EN    FR    IT 

 









Légende :    VFR   VFR Marginal   IFR   IFR Intensif   IFR Très Intensif
Visi : 
Plafond : 
>= 8 km
>= 3000ft
5 à 8 km
1000 à 3000 ft
1500m à 5 km
500 à 1000 ft
800 à 1500m
200 à 500 ft
< 800m
< 200 ft
Symboles :   Orages  Brouillard  Fortes neiges  Fortes précipitations  Vent > 20 kt






- Altitude de l'aérodrome : 1213 ft


KMCW - Mason City Municipal

DERNIER METAR :
  • 121753Z AUTO 18012KT 10SM CLR M09/M17 A3044 RMK AO2 SLP331 T10941172 11094 21178 58030

METARs EXPIRÉS :
  • 121653Z AUTO 21007G15KT 10SM CLR M11/M19 A3049 RMK AO2 SLP349 T11061189
  • 121553Z AUTO 23007KT 210V270 10SM CLR M12/M17 A3053 RMK AO2 SLP362 T11171172

TAF KMCW
Valide du 12 à 18h jusqu'au 13 à 18h UTC


121733Z 1218/1318 20011G17KT P6SM SKC
FM130100 17015G22KT P6SM BKN150
FM131500 19012G18KT P6SM OVC100



MET'MAP, la Météo Aéronautique d'un coup d'oeil ! - Copyright ORBIFLY Décembre 2007 - Disclaimer

ORBIFLY MET'MAP TEAM :

Programmation & Développement : Alexandra Zaïnal
Conception & Développement : Baudouin d'Aumeries
Co-Programmation & Développement : Marc-Olivier Méhu
Soutien technique & logistique : Manuel Goepfert

Contact : metmap@orbifly.com




SOURCES & CREDITS :

   NOAA       Earth
Advisory